Time;durP1;ratioP1;P1;durP2;ratioP2;P2;SDS_P1;SDS_P2;PMS_P1;PMS_P2;Temp;Humidity;BMP_temperature;BMP_pressure;BME280_temperature;BME280_humidity;BME280_pressure;Samples;Min_cycle;Max_cycle;Signal;HPM_P1;HPM_P2
2021/05/19 03:30:41;;;;;;;4.37;3.80;;;;;;;14.73;59.47;98780.06;8288213;22;20231;-84
2021/05/19 03:34:03;;;;;;;8.00;5.20;;;;;;;14.89;59.04;98806.56;6914089;28;20216;-83
2021/05/19 03:37:24;;;;;;;6.20;3.70;;;;;;;14.94;58.65;98797.72;6913465;28;20231;-85
2021/05/19 03:40:45;;;;;;;6.07;4.03;;;;;;;14.89;58.33;98789.44;6927576;28;20638;-84
2021/05/19 03:44:08;;;;;;;6.13;3.77;;;;;;;15.03;57.99;98815.31;6926878;23;20219;-79
2021/05/19 03:47:30;;;;;;;3.30;2.90;;;;;;;14.91;57.99;98817.16;6916703;28;20223;-78
2021/05/19 03:50:51;;;;;;;2.97;2.77;;;;;;;14.80;57.94;98791.66;6923600;28;20208;-78
2021/05/19 03:54:12;;;;;;;5.70;3.00;;;;;;;14.72;58.12;98821.00;6924719;28;20210;-78
2021/05/19 03:57:33;;;;;;;4.00;2.90;;;;;;;14.37;58.93;98801.88;6924292;28;20233;-79
2021/05/19 04:00:54;;;;;;;3.90;3.20;;;;;;;14.69;58.74;98808.72;6905371;28;20202;-78
2021/05/19 04:04:16;;;;;;;4.00;2.87;;;;;;;14.83;58.32;98829.22;6917694;28;20207;-77
2021/05/19 04:07:37;;;;;;;3.43;2.63;;;;;;;14.79;58.40;98835.31;6924165;28;20794;-78
2021/05/19 04:10:58;;;;;;;3.10;2.80;;;;;;;15.02;57.81;98825.34;6915458;28;20187;-78
2021/05/19 04:14:20;;;;;;;3.30;3.00;;;;;;;14.76;58.33;98808.66;6918097;28;20687;-78
2021/05/19 04:17:41;;;;;;;3.33;3.03;;;;;;;14.99;58.74;98844.00;6916148;28;20208;-79
2021/05/19 04:21:03;;;;;;;3.63;3.27;;;;;;;14.87;59.07;98848.56;6916607;28;20244;-78
2021/05/19 04:24:24;;;;;;;3.20;2.90;;;;;;;14.83;58.51;98841.94;6917890;28;20318;-80
2021/05/19 04:27:45;;;;;;;4.13;3.40;;;;;;;14.82;59.49;98851.94;6917071;28;20318;-79
2021/05/19 04:31:07;;;;;;;5.07;4.57;;;;;;;14.99;59.20;98846.72;6911242;28;20352;-78
2021/05/19 04:34:28;;;;;;;4.10;3.33;;;;;;;15.19;58.14;98858.94;6895361;28;20702;-79
2021/05/19 04:37:50;;;;;;;6.90;6.20;;;;;;;15.07;58.72;98855.38;6890011;28;20224;-80
2021/05/19 04:41:11;;;;;;;3.70;3.40;;;;;;;15.06;58.94;98855.59;6889399;28;20672;-78
2021/05/19 04:44:32;;;;;;;3.27;2.97;;;;;;;15.14;58.89;98853.38;6889501;28;20236;-78
2021/05/19 04:47:53;;;;;;;5.27;2.90;;;;;;;15.15;58.50;98865.06;6891074;28;20724;-78
2021/05/19 04:51:14;;;;;;;4.00;2.50;;;;;;;15.12;57.64;98851.94;6919017;28;20206;-78
2021/05/19 04:54:36;;;;;;;2.80;2.53;;;;;;;15.25;57.46;98868.03;6922292;28;20223;-78
2021/05/19 04:57:58;;;;;;;4.77;2.70;;;;;;;15.15;57.48;98863.16;6918284;28;20239;-78
2021/05/19 05:01:19;;;;;;;3.20;2.93;;;;;;;15.23;57.63;98881.81;6894193;28;20663;-78
2021/05/19 05:04:40;;;;;;;3.30;3.00;;;;;;;14.99;58.65;98865.72;6894264;28;20260;-79
2021/05/19 05:08:01;;;;;;;3.70;3.10;;;;;;;15.16;58.31;98864.81;6893603;28;20232;-78
2021/05/19 05:11:23;;;;;;;3.37;3.07;;;;;;;15.11;58.12;98866.59;6894197;28;20206;-79
2021/05/19 05:14:44;;;;;;;6.93;4.47;;;;;;;15.04;59.08;98884.88;6895911;28;20226;-79
2021/05/19 05:18:05;;;;;;;5.63;4.13;;;;;;;15.33;57.81;98887.56;6895882;28;20208;-78
2021/05/19 05:21:26;;;;;;;8.13;7.07;;;;;;;15.27;58.34;98887.66;6919977;28;20214;-78
2021/05/19 05:24:47;;;;;;;4.27;3.47;;;;;;;15.37;58.09;98890.63;6898445;28;20243;-78
2021/05/19 05:28:09;;;;;;;7.67;5.53;;;;;;;15.39;57.68;98888.53;6905211;28;20228;-78
2021/05/19 05:31:31;;;;;;;3.97;3.30;;;;;;;15.34;57.97;98900.06;6923898;28;20686;-79
2021/05/19 05:34:52;;;;;;;4.37;2.80;;;;;;;15.46;57.81;98889.25;6917279;28;20239;-78
2021/05/19 05:38:13;;;;;;;3.40;3.13;;;;;;;15.44;57.90;98899.50;6920261;28;20215;-79
2021/05/19 05:41:34;;;;;;;3.50;3.20;;;;;;;15.66;56.82;98906.03;6903045;28;20212;-79
2021/05/19 05:44:56;;;;;;;4.57;2.97;;;;;;;15.53;56.77;98898.94;6895066;28;20813;-78
2021/05/19 05:48:17;;;;;;;2.87;2.67;;;;;;;15.72;56.76;98908.66;6894279;28;20215;-78
2021/05/19 05:51:38;;;;;;;2.77;2.57;;;;;;;15.74;56.53;98911.16;6901198;28;20718;-78
2021/05/19 05:55:00;;;;;;;5.50;2.70;;;;;;;15.76;56.49;98911.72;6920708;28;20247;-78
2021/05/19 05:58:21;;;;;;;2.53;2.33;;;;;;;16.03;55.06;98904.75;6923219;28;20303;-78
2021/05/19 06:01:43;;;;;;;3.20;2.90;;;;;;;15.94;55.83;98908.91;6927145;28;20211;-80
2021/05/19 06:05:05;;;;;;;4.33;2.80;;;;;;;15.95;54.89;98889.63;6921283;28;20230;-81
2021/05/19 06:08:26;;;;;;;3.23;2.87;;;;;;;16.28;55.22;98910.78;6894237;28;20208;-78
2021/05/19 06:11:47;;;;;;;4.70;2.50;;;;;;;16.26;54.74;98911.00;6893115;28;20254;-79
2021/05/19 06:15:09;;;;;;;3.10;2.80;;;;;;;16.44;54.41;98910.03;6894012;28;20244;-78
2021/05/19 06:18:31;;;;;;;3.07;2.50;;;;;;;16.63;53.63;98909.66;6894208;28;20212;-80
2021/05/19 06:21:52;;;;;;;6.07;3.33;;;;;;;16.35;53.96;98904.09;6892934;28;20210;-80
2021/05/19 06:25:15;;;;;;;3.97;3.67;;;;;;;16.71;54.70;98922.06;6894040;28;20232;-80
2021/05/19 06:28:36;;;;;;;4.80;3.13;;;;;;;16.83;53.99;98906.50;6894251;28;20603;-79
2021/05/19 06:31:57;;;;;;;4.20;3.00;;;;;;;17.04;53.53;98922.19;6892508;28;20269;-79
2021/05/19 06:35:19;;;;;;;2.93;2.57;;;;;;;17.21;53.37;98915.69;6893275;28;20235;-79
2021/05/19 06:38:40;;;;;;;3.20;2.90;;;;;;;17.60;52.08;98911.25;6893098;28;20304;-79
2021/05/19 06:42:02;;;;;;;3.33;3.00;;;;;;;17.57;51.35;98915.28;6892217;28;20562;-81
2021/05/19 06:45:23;;;;;;;3.93;3.20;;;;;;;17.27;51.93;98922.91;6892296;28;20243;-79
2021/05/19 06:48:44;;;;;;;3.83;3.40;;;;;;;16.98;51.68;98923.97;6891983;28;20210;-80
2021/05/19 06:52:06;;;;;;;3.67;3.30;;;;;;;17.00;53.47;98921.00;6892634;28;20206;-78
2021/05/19 06:55:31;;;;;;;3.87;3.57;;;;;;;16.71;52.29;98901.13;6892620;28;20229;-80
2021/05/19 06:58:52;;;;;;;5.80;4.23;;;;;;;16.83;52.48;98907.34;6893616;28;20215;-79
2021/05/19 07:02:13;;;;;;;4.40;3.83;;;;;;;16.58;54.18;98936.75;6892636;28;20209;-79
2021/05/19 07:05:34;;;;;;;4.27;3.87;;;;;;;16.97;52.27;98925.06;6892659;28;20285;-83
2021/05/19 07:08:57;;;;;;;4.10;3.70;;;;;;;16.80;53.20;98910.53;6893558;28;20218;-79
2021/05/19 07:12:18;;;;;;;4.57;3.60;;;;;;;17.10;51.00;98922.03;6892566;28;20231;-79
2021/05/19 07:15:42;;;;;;;4.00;3.70;;;;;;;17.01;52.15;98920.78;6893050;28;20232;-80
2021/05/19 07:19:03;;;;;;;6.97;4.10;;;;;;;17.14;51.84;98930.53;6892053;28;20211;-79
2021/05/19 07:22:30;;;;;;;4.33;3.93;;;;;;;17.35;52.27;98932.59;6891581;28;20209;-79
2021/05/19 07:25:52;;;;;;;4.63;4.20;;;;;;;16.72;52.13;98921.81;6891793;28;20235;-80
2021/05/19 07:29:14;;;;;;;4.67;4.27;;;;;;;16.80;53.09;98940.50;6891916;28;20203;-80
2021/05/19 07:32:35;;;;;;;4.40;4.00;;;;;;;16.66;52.26;98868.34;6891456;28;20310;-78
2021/05/19 07:35:56;;;;;;;5.43;3.80;;;;;;;18.54;49.36;98919.25;6891015;28;20227;-79
2021/05/19 07:39:18;;;;;;;6.27;4.07;;;;;;;18.08;48.33;98915.03;6891459;28;20792;-79
2021/05/19 07:42:43;;;;;;;5.13;3.97;;;;;;;18.29;47.58;98921.59;6911063;28;20311;-79
2021/05/19 07:46:04;;;;;;;4.20;3.57;;;;;;;19.04;45.73;98909.75;6923455;28;20237;-80
2021/05/19 07:49:26;;;;;;;6.63;3.60;;;;;;;18.40;46.67;98916.06;6923907;28;20188;-79
2021/05/19 07:52:47;;;;;;;3.87;3.57;;;;;;;18.63;47.70;98910.34;6922309;28;20624;-79
2021/05/19 07:56:13;;;;;;;3.97;3.67;;;;;;;19.28;46.41;98889.25;6921565;28;20726;-79
2021/05/19 07:59:35;;;;;;;3.60;3.30;;;;;;;19.25;45.94;98903.47;6920217;28;20199;-79
2021/05/19 08:02:56;;;;;;;3.60;3.30;;;;;;;19.05;45.90;98916.06;6924498;28;20243;-79
2021/05/19 08:06:20;;;;;;;3.60;3.30;;;;;;;19.50;44.22;98892.75;6924779;28;20227;-80
2021/05/19 08:09:42;;;;;;;3.47;3.10;;;;;;;18.15;47.26;98923.03;6924593;28;20216;-80
2021/05/19 08:13:04;;;;;;;9.73;5.07;;;;;;;17.03;53.68;98943.16;6924607;28;20214;-78
2021/05/19 08:16:28;;;;;;;7.72;4.43;;;;;;;16.20;53.79;98938.31;6924340;28;20457;-78
2021/05/19 08:19:50;;;;;;;6.37;4.07;;;;;;;16.77;51.10;98935.56;6928187;28;20211;-78
2021/05/19 08:23:11;;;;;;;6.33;3.63;;;;;;;16.54;51.13;98923.88;6923391;28;20210;-79
2021/05/19 08:26:32;;;;;;;6.20;3.90;;;;;;;16.50;53.51;98928.97;6923332;28;20233;-79
2021/05/19 08:29:53;;;;;;;3.93;3.43;;;;;;;16.30;53.29;98922.22;6922978;28;20215;-79
2021/05/19 08:33:16;;;;;;;5.77;3.87;;;;;;;15.96;56.08;98928.50;6921942;28;20212;-78
2021/05/19 08:36:39;;;;;;;3.70;3.40;;;;;;;16.43;54.41;98913.84;6921717;28;20236;-79
2021/05/19 08:40:01;;;;;;;4.17;3.80;;;;;;;16.57;56.65;98934.31;6923324;28;20216;-79
2021/05/19 08:43:24;;;;;;;5.80;3.90;;;;;;;16.85;57.32;98920.69;6920984;28;20215;-79
2021/05/19 08:46:46;;;;;;;4.17;3.87;;;;;;;17.24;56.20;98928.00;6921952;28;20592;-80
2021/05/19 08:50:10;;;;;;;3.43;3.13;;;;;;;18.16;54.71;98920.03;6922482;28;20216;-80
2021/05/19 08:53:32;;;;;;;4.77;3.77;;;;;;;18.01;54.09;98913.53;6922359;28;20217;-78
2021/05/19 08:56:53;;;;;;;5.53;4.03;;;;;;;17.57;54.15;98865.41;6923713;28;20723;-79
2021/05/19 09:00:16;;;;;;;4.90;3.70;;;;;;;17.95;54.56;98918.09;6922085;28;20254;-78
2021/05/19 09:03:38;;;;;;;4.10;3.70;;;;;;;18.01;53.34;98914.38;6922395;28;20200;-79
2021/05/19 09:07:02;;;;;;;4.40;3.90;;;;;;;18.44;52.90;98909.00;6922431;28;20284;-80
2021/05/19 09:10:23;;;;;;;5.23;4.00;;;;;;;17.98;53.72;98870.41;6922657;28;20200;-79
2021/05/19 09:13:45;;;;;;;4.00;3.70;;;;;;;18.54;52.67;98906.44;6920742;28;20549;-78
2021/05/19 09:17:23;;;;;;;4.13;3.70;;;;;;;18.44;52.91;98911.75;6922904;28;20232;-78
2021/05/19 09:20:46;;;;;;;4.03;3.33;;;;;;;17.77;51.77;98903.88;6907955;28;20228;-79
2021/05/19 09:24:10;;;;;;;3.97;3.63;;;;;;;17.91;52.88;98910.66;6920727;28;20218;-79
2021/05/19 09:27:39;;;;;;;4.87;3.80;;;;;;;18.07;51.73;98909.81;6921285;28;20230;-78
2021/05/19 09:31:00;;;;;;;4.20;3.43;;;;;;;18.50;49.97;98904.44;6920060;28;20214;-78
2021/05/19 09:34:27;;;;;;;5.57;3.97;;;;;;;18.34;50.60;98887.03;6922806;28;20582;-78
2021/05/19 09:37:48;;;;;;;5.03;4.03;;;;;;;18.48;50.08;98898.41;6924843;28;20241;-79
2021/05/19 09:41:21;;;;;;;4.27;3.10;;;;;;;18.47;46.27;98897.59;6922940;28;20208;-79
2021/05/19 09:44:44;;;;;;;4.23;2.70;;;;;;;18.65;48.09;98839.09;6937099;22;20232;-85
2021/05/19 09:48:06;;;;;;;3.57;2.20;;;;;;;19.86;45.80;98902.09;6916953;28;20243;-82
2021/05/19 09:51:28;;;;;;;4.67;2.60;;;;;;;19.73;43.83;98867.78;6920566;28;20216;-86
2021/05/19 09:54:49;;;;;;;3.07;2.70;;;;;;;19.96;43.25;98877.53;6920412;28;20573;-87
2021/05/19 09:58:29;;;;;;;3.00;2.63;;;;;;;19.71;44.10;98823.47;6920322;28;20562;-82
2021/05/19 10:01:54;;;;;;;2.93;2.03;;;;;;;20.34;41.61;98889.03;6907316;28;20195;-82
2021/05/19 10:05:18;;;;;;;4.03;2.40;;;;;;;20.58;40.95;98834.63;6908267;28;20705;-81
2021/05/19 10:08:40;;;;;;;2.53;1.97;;;;;;;20.74;38.62;98819.91;6919829;28;20207;-82
2021/05/19 10:12:02;;;;;;;5.00;2.40;;;;;;;19.61;39.23;98823.38;6919294;28;20269;-84
2021/05/19 10:15:26;;;;;;;3.73;2.87;;;;;;;19.79;40.97;98816.66;6920062;28;20219;-86
2021/05/19 10:18:49;;;;;;;2.53;2.33;;;;;;;19.66;40.57;98828.91;6920739;28;20204;-86
2021/05/19 10:22:13;;;;;;;4.10;2.60;;;;;;;20.24;37.41;98797.78;6919385;28;20217;-87
2021/05/19 10:25:38;;;;;;;2.23;1.80;;;;;;;21.23;36.60;98796.44;6917581;28;20212;-88
2021/05/19 10:29:00;;;;;;;2.87;2.03;;;;;;;20.78;34.85;98806.19;6920502;28;20254;-84
2021/05/19 10:32:31;;;;;;;2.37;1.80;;;;;;;20.21;36.79;98869.50;6917457;28;20210;-85
2021/05/19 10:35:55;;;;;;;2.17;1.70;;;;;;;19.95;35.45;98865.78;6915473;28;20754;-85
2021/05/19 10:39:24;;;;;;;1.50;1.40;;;;;;;20.01;35.66;98822.81;6918634;28;20216;-85
2021/05/19 10:42:52;;;;;;;1.70;1.60;;;;;;;20.72;34.60;98830.28;6919861;28;20219;-84
2021/05/19 10:46:17;;;;;;;4.50;1.57;;;;;;;20.50;34.65;98777.59;6917842;28;20224;-85
2021/05/19 10:50:07;;;;;;;1.63;1.37;;;;;;;20.80;34.48;98855.25;6908111;28;20200;-85
2021/05/19 10:57:35;;;;;;;3.57;1.50;;;;;;;21.27;35.83;98792.84;6912116;28;20227;-85
2021/05/19 11:00:56;;;;;;;3.10;1.60;;;;;;;22.34;33.07;98831.69;6903723;28;20223;-80
2021/05/19 11:04:18;;;;;;;1.40;1.30;;;;;;;20.62;33.62;98827.50;6892099;28;20204;-81
2021/05/19 11:08:29;;;;;;;2.63;1.30;;;;;;;20.21;31.07;98771.75;6909759;28;20230;-83
2021/05/19 11:11:50;;;;;;;1.63;1.53;;;;;;;21.69;30.17;98807.97;6898336;28;20217;-80
2021/05/19 11:15:55;;;;;;;2.33;1.30;;;;;;;22.32;30.96;98815.53;6917436;28;20228;-81
2021/05/19 11:19:27;;;;;;;2.30;1.63;;;;;;;22.43;29.66;98816.31;6918574;28;20202;-79
2021/05/19 11:22:49;;;;;;;1.40;1.30;;;;;;;21.74;28.95;98761.31;6917664;28;20240;-79
2021/05/19 11:26:11;;;;;;;1.63;1.50;;;;;;;21.65;28.43;98762.94;6917287;28;20310;-80
2021/05/19 11:29:35;;;;;;;3.80;1.20;;;;;;;22.77;28.22;98727.34;6917369;28;20657;-80
2021/05/19 11:33:04;;;;;;;2.07;1.30;;;;;;;22.59;28.35;98782.19;6916633;28;20231;-79
2021/05/19 11:36:39;;;;;;;2.87;2.60;;;;;;;21.35;28.72;98795.88;6919275;28;20207;-79
2021/05/19 11:40:03;;;;;;;1.60;1.50;;;;;;;21.79;30.65;98799.72;6922656;28;20195;-80
2021/05/19 11:43:24;;;;;;;2.63;1.77;;;;;;;22.35;28.05;98786.63;6921005;28;20212;-80
2021/05/19 11:46:45;;;;;;;2.73;1.60;;;;;;;22.37;26.61;98770.72;6921617;28;20243;-80
2021/05/19 11:50:15;;;;;;;1.80;1.70;;;;;;;22.27;28.20;98785.31;6920988;28;20223;-82
2021/05/19 11:53:39;;;;;;;1.13;1.03;;;;;;;22.63;25.84;98775.00;6921175;28;20218;-83
2021/05/19 11:57:20;;;;;;;1.60;1.50;;;;;;;22.88;28.46;98785.84;6921045;28;20236;-84
2021/05/19 12:00:48;;;;;;;1.33;1.23;;;;;;;22.88;28.05;98788.59;6920824;28;20214;-85
2021/05/19 12:04:40;;;;;;;5.17;4.47;;;;;;;22.22;28.94;98762.53;6920824;28;20204;-85
2021/05/19 12:08:02;;;;;;;5.57;3.60;;;;;;;23.70;27.32;98772.00;6917129;28;20710;-83
2021/05/19 12:11:38;;;;;;;2.47;2.03;;;;;;;22.98;26.68;98786.63;6902423;28;20219;-84
2021/05/19 12:15:15;;;;;;;8.17;6.93;;;;;;;22.77;27.23;98776.84;6920765;28;20228;-85
2021/05/19 12:18:39;;;;;;;2.57;1.70;;;;;;;22.71;27.71;98742.25;6917881;28;20245;-85
2021/05/19 12:22:07;;;;;;;2.00;1.20;;;;;;;21.72;26.08;98724.25;6920752;28;20214;-84
2021/05/19 12:25:29;;;;;;;3.33;1.60;;;;;;;22.89;25.29;98771.00;6920379;28;20212;-84
2021/05/19 12:28:53;;;;;;;1.87;1.37;;;;;;;23.09;27.28;98774.44;6920391;28;20208;-85
2021/05/19 12:32:18;;;;;;;1.63;1.30;;;;;;;22.91;23.95;98742.13;6920501;28;20296;-84
2021/05/19 12:35:45;;;;;;;1.90;1.10;;;;;;;22.67;26.45;98732.91;6920128;28;20675;-85
2021/05/19 12:39:09;;;;;;;3.30;1.20;;;;;;;22.95;27.44;98728.63;6920503;28;20267;-84
2021/05/19 12:42:40;;;;;;;3.40;1.30;;;;;;;23.15;26.92;98767.78;6920276;28;20654;-84
2021/05/19 12:46:12;;;;;;;2.40;1.10;;;;;;;23.61;25.11;98760.00;6920032;28;20230;-84
2021/05/19 12:49:53;;;;;;;0.87;0.87;;;;;;;22.68;23.21;98718.09;6920447;28;20225;-84
2021/05/19 12:53:30;;;;;;;2.27;1.30;;;;;;;23.36;24.52;98705.19;6903437;28;20225;-87
2021/05/19 12:57:06;;;;;;;1.57;1.40;;;;;;;22.44;24.82;98733.63;6919805;28;20661;-84
2021/05/19 13:00:27;;;;;;;2.50;1.40;;;;;;;23.66;25.47;98735.16;6919398;28;20216;-84
2021/05/19 13:03:50;;;;;;;2.00;1.23;;;;;;;23.80;21.88;98775.50;6920234;28;20740;-85
2021/05/19 13:07:16;;;;;;;0.93;0.90;;;;;;;23.14;22.62;98741.38;6920221;28;20230;-84
2021/05/19 13:10:41;;;;;;;1.70;1.10;;;;;;;23.82;21.68;98775.19;6920060;28;20206;-84
2021/05/19 13:14:07;;;;;;;1.33;1.10;;;;;;;23.71;22.06;98782.72;6920038;28;20209;-84
2021/05/19 13:17:33;;;;;;;2.40;1.37;;;;;;;22.95;22.78;98739.63;6919738;28;20269;-83
2021/05/19 13:21:00;;;;;;;1.40;1.30;;;;;;;23.47;23.60;98770.84;6919545;28;20213;-81
2021/05/19 13:24:24;;;;;;;2.33;1.13;;;;;;;22.78;23.47;98750.19;6919652;28;20196;-82
2021/05/19 13:27:46;;;;;;;3.13;1.63;;;;;;;23.95;22.54;98741.50;6919586;28;20688;-80
2021/05/19 13:31:07;;;;;;;2.57;1.20;;;;;;;22.80;23.39;98721.28;6919120;28;20205;-79
2021/05/19 13:34:36;;;;;;;2.03;1.50;;;;;;;22.61;23.90;98750.53;6919597;28;20205;-80
2021/05/19 13:37:57;;;;;;;2.87;1.40;;;;;;;22.39;24.21;98727.28;6919703;28;20213;-80
2021/05/19 13:41:19;;;;;;;3.27;1.30;;;;;;;23.32;24.70;98737.13;6919221;28;20219;-79
2021/05/19 13:44:42;;;;;;;2.30;1.30;;;;;;;22.81;24.66;98709.19;6919209;28;20213;-79
2021/05/19 13:48:03;;;;;;;2.00;1.40;;;;;;;23.19;24.41;98729.56;6919175;28;20237;-79
2021/05/19 13:51:25;;;;;;;2.30;1.50;;;;;;;22.07;26.49;98715.91;6918751;28;20240;-79
2021/05/19 13:54:46;;;;;;;1.90;1.47;;;;;;;22.49;26.22;98686.84;6919314;28;20204;-80
2021/05/19 13:58:11;;;;;;;1.40;1.30;;;;;;;22.35;26.87;98706.97;6918204;28;20667;-80
2021/05/19 14:01:33;;;;;;;1.57;1.10;;;;;;;22.76;26.65;98741.38;6918848;28;20234;-79
2021/05/19 14:04:54;;;;;;;2.73;1.60;;;;;;;22.66;25.86;98687.28;6919000;28;20210;-80
2021/05/19 14:08:15;;;;;;;2.37;1.70;;;;;;;22.56;26.83;98730.53;6918409;28;20233;-80
2021/05/19 14:11:43;;;;;;;2.10;1.30;;;;;;;22.96;25.21;98676.06;6918481;28;20215;-80
2021/05/19 14:15:12;;;;;;;2.83;1.20;;;;;;;23.58;25.06;98753.13;6918907;28;20245;-81
2021/05/19 14:18:52;;;;;;;1.40;1.30;;;;;;;23.62;26.67;98718.41;6918786;28;20216;-80
2021/05/19 14:29:32;;;;;;;2.47;1.43;;;;;;;23.13;25.10;98714.97;6918509;28;20201;-80
2021/05/19 14:32:54;;;;;;;2.20;1.23;;;;;;;22.87;25.20;98757.53;6918502;28;20238;-79
2021/05/19 14:36:42;;;;;;;1.73;1.30;;;;;;;23.43;25.57;98752.44;6918447;28;20210;-80
2021/05/19 15:02:11;;;;;;;2.83;1.20;;;;;;;20.54;34.86;98770.50;6900819;28;20202;-78
2021/05/19 15:05:33;;;;;;;3.07;1.47;;;;;;;20.57;35.37;98805.59;6916923;28;20205;-75
2021/05/19 15:08:55;;;;;;;1.60;1.50;;;;;;;20.29;35.32;98748.53;6917007;28;20277;-74
2021/05/19 15:12:16;;;;;;;2.47;1.23;;;;;;;20.39;35.52;98789.66;6921754;28;20215;-75
2021/05/19 15:15:38;;;;;;;1.47;1.37;;;;;;;20.19;36.52;98787.66;6921480;28;20228;-74
2021/05/19 15:18:59;;;;;;;2.87;1.43;;;;;;;20.46;35.85;98784.75;6921871;28;20209;-74
2021/05/19 15:22:20;;;;;;;2.00;1.33;;;;;;;21.08;36.22;98826.56;6921645;28;20296;-74
2021/05/19 15:25:43;;;;;;;2.43;1.50;;;;;;;20.50;35.87;98762.00;6920941;28;20213;-74
2021/05/19 15:29:04;;;;;;;2.87;1.33;;;;;;;20.67;35.71;98764.50;6921342;28;20239;-75
2021/05/19 15:32:25;;;;;;;3.07;1.70;;;;;;;19.96;36.05;98751.63;6921117;28;20684;-75
2021/05/19 15:35:47;;;;;;;1.30;1.10;;;;;;;19.48;36.55;98774.59;6921560;28;20203;-75
2021/05/19 15:39:08;;;;;;;2.07;1.27;;;;;;;20.14;35.91;98806.78;6921334;28;20649;-75
2021/05/19 15:42:30;;;;;;;1.50;1.23;;;;;;;19.90;36.49;98759.00;6920661;28;20690;-75
2021/05/19 15:45:51;;;;;;;1.57;1.30;;;;;;;20.63;36.00;98843.69;6920835;28;20219;-75
2021/05/19 15:49:13;;;;;;;2.43;1.00;;;;;;;20.26;35.48;98847.63;6920962;28;20331;-74
2021/05/19 15:52:36;;;;;;;2.50;1.10;;;;;;;19.68;35.61;98765.69;6920784;28;20275;-75
2021/05/19 15:55:57;;;;;;;2.40;1.10;;;;;;;18.97;37.54;98821.69;6920857;28;20282;-75
2021/05/19 15:59:19;;;;;;;1.17;1.00;;;;;;;19.79;35.32;98842.13;6920851;28;20211;-75
2021/05/19 16:02:41;;;;;;;3.77;1.30;;;;;;;20.04;35.04;98855.16;6920702;28;20209;-75
2021/05/19 16:06:02;;;;;;;2.67;1.40;;;;;;;19.64;33.55;98863.88;6920352;28;20738;-74
2021/05/19 16:09:24;;;;;;;1.50;1.30;;;;;;;19.26;33.88;98817.63;6920508;28;20266;-75
2021/05/19 16:12:45;;;;;;;2.10;1.30;;;;;;;19.98;32.98;98870.69;6920174;28;20204;-75
2021/05/19 16:16:08;;;;;;;1.43;0.90;;;;;;;19.44;33.55;98824.59;6920418;28;20318;-75
2021/05/19 16:19:30;;;;;;;2.33;1.10;;;;;;;19.11;34.12;98786.56;6920492;28;20338;-75
2021/05/19 16:22:51;;;;;;;1.13;0.90;;;;;;;19.93;33.29;98853.44;6919346;28;20215;-75
2021/05/19 16:26:14;;;;;;;1.47;1.13;;;;;;;19.60;33.35;98820.91;6919722;28;20235;-76
2021/05/19 16:34:15;;;;;;;0.80;0.80;;;;;;;19.19;33.96;98786.91;6918777;28;20236;-75
2021/05/19 16:37:36;;;;;;;1.40;1.30;;;;;;;19.54;33.69;98772.72;6919458;28;20204;-75
2021/05/19 16:40:58;;;;;;;1.17;1.07;;;;;;;20.02;33.62;98803.41;6919195;28;20226;-75
2021/05/19 16:44:19;;;;;;;0.83;0.73;;;;;;;19.55;34.58;98802.56;6919597;28;20304;-75
2021/05/19 16:47:41;;;;;;;0.77;0.77;;;;;;;19.74;35.16;98824.84;6919028;28;20233;-75
2021/05/19 16:51:03;;;;;;;1.20;1.10;;;;;;;19.28;35.13;98815.44;6919373;28;20681;-75
2021/05/19 16:54:25;;;;;;;2.30;1.20;;;;;;;19.52;35.34;98808.53;6918813;28;20222;-75
2021/05/19 16:57:47;;;;;;;1.53;1.17;;;;;;;19.85;34.74;98824.63;6918974;28;20208;-75
2021/05/19 17:01:09;;;;;;;3.17;1.10;;;;;;;19.66;34.63;98864.47;6918643;28;20212;-75
2021/05/19 17:08:11;;;;;;;0.87;0.83;;;;;;;19.11;35.49;98833.03;6918837;28;20231;-75
2021/05/19 17:11:33;;;;;;;1.23;1.00;;;;;;;19.04;35.38;98821.50;6918578;28;20578;-75
2021/05/19 17:14:56;;;;;;;1.23;1.10;;;;;;;18.87;35.88;98807.91;6918359;28;20238;-75
2021/05/19 17:18:17;;;;;;;1.30;1.00;;;;;;;19.65;35.21;98901.09;6918452;28;20303;-75
2021/05/19 17:21:38;;;;;;;0.93;0.93;;;;;;;18.95;35.91;98817.56;6918048;28;20219;-75
2021/05/19 17:25:00;;;;;;;1.10;1.10;;;;;;;19.01;35.76;98873.91;6917367;28;20300;-74
2021/05/19 17:28:22;;;;;;;1.37;1.10;;;;;;;19.25;35.76;98910.81;6918420;28;20234;-76
2021/05/19 17:31:43;;;;;;;0.90;0.90;;;;;;;19.04;36.47;98885.16;6917857;28;20209;-75
2021/05/19 17:35:05;;;;;;;1.63;1.10;;;;;;;18.60;35.98;98841.75;6916988;28;20213;-75
2021/05/19 17:38:27;;;;;;;1.80;1.30;;;;;;;18.22;37.32;98864.44;6918428;28;20207;-74
2021/05/19 17:41:49;;;;;;;1.23;1.10;;;;;;;18.69;37.11;98924.91;6917288;28;20332;-74
2021/05/19 17:45:11;;;;;;;0.90;0.90;;;;;;;18.78;37.32;98928.84;6917934;28;20279;-75
2021/05/19 17:48:33;;;;;;;0.87;0.87;;;;;;;18.01;36.85;98821.63;6917543;28;20238;-75
2021/05/19 17:51:54;;;;;;;2.40;1.20;;;;;;;18.57;37.00;98935.94;6917401;28;20222;-74
2021/05/19 17:55:15;;;;;;;1.37;1.00;;;;;;;18.42;37.30;98883.03;6917466;28;20207;-74
2021/05/19 17:58:37;;;;;;;2.53;1.30;;;;;;;18.99;37.08;98930.75;6917709;28;20199;-75
2021/05/19 18:01:59;;;;;;;1.40;1.30;;;;;;;18.48;36.52;98890.22;6917480;28;20201;-75
2021/05/19 18:05:20;;;;;;;1.60;1.47;;;;;;;18.76;36.41;98888.09;6917935;28;20246;-75
2021/05/19 18:08:42;;;;;;;4.20;1.50;;;;;;;19.30;35.95;98930.84;6916933;28;20246;-75
2021/05/19 18:12:04;;;;;;;2.10;1.23;;;;;;;19.29;35.47;98904.56;6916564;28;20207;-75
2021/05/19 18:15:26;;;;;;;1.40;1.30;;;;;;;19.24;35.20;98899.09;6899161;28;20263;-75
2021/05/19 18:18:48;;;;;;;1.30;1.20;;;;;;;18.99;35.73;98892.50;6916823;28;20204;-74
2021/05/19 18:22:09;;;;;;;1.87;1.40;;;;;;;19.45;35.17;98928.25;6916357;28;20227;-75
2021/05/19 18:25:30;;;;;;;3.00;1.53;;;;;;;19.34;35.49;98928.44;6916260;28;20266;-75
2021/05/19 18:28:52;;;;;;;1.37;1.27;;;;;;;19.52;35.15;98908.91;6916400;28;20274;-74
2021/05/19 18:32:16;;;;;;;2.47;2.20;;;;;;;18.59;35.32;98834.66;6916313;28;20221;-75
2021/05/19 18:35:38;;;;;;;2.00;1.90;;;;;;;18.79;35.78;98851.25;6916408;28;20222;-75
2021/05/19 18:39:00;;;;;;;1.23;1.00;;;;;;;18.61;36.37;98868.00;6916065;28;20207;-75
2021/05/19 18:42:24;;;;;;;1.30;1.20;;;;;;;18.88;36.97;98927.03;6915752;28;20678;-76
2021/05/19 18:45:47;;;;;;;1.07;1.00;;;;;;;18.62;38.10;98922.38;6916005;28;20273;-76
2021/05/19 18:49:09;;;;;;;1.33;1.23;;;;;;;18.22;38.32;98891.75;6915923;28;20267;-75
2021/05/19 18:52:30;;;;;;;2.77;1.30;;;;;;;17.93;37.69;98853.94;6916122;28;20207;-75
2021/05/19 18:55:52;;;;;;;2.10;1.40;;;;;;;17.47;36.98;98896.03;6916451;28;20583;-75
2021/05/19 18:59:13;;;;;;;1.50;1.40;;;;;;;17.10;37.75;98847.66;6915880;28;20215;-76
2021/05/19 19:02:34;;;;;;;1.30;1.20;;;;;;;18.12;36.48;98916.19;6915827;28;20221;-75
2021/05/19 19:05:59;;;;;;;2.70;2.30;;;;;;;18.38;37.16;98906.47;6915581;28;20669;-76
2021/05/19 19:09:20;;;;;;;2.50;1.83;;;;;;;18.61;38.17;98958.13;6916471;28;20226;-76
2021/05/19 19:12:42;;;;;;;2.37;1.30;;;;;;;17.61;40.24;98881.00;6915701;28;20210;-76
2021/05/19 19:16:04;;;;;;;1.93;1.20;;;;;;;17.34;41.13;98925.47;6915851;28;20261;-76
2021/05/19 19:19:26;;;;;;;1.73;1.30;;;;;;;17.37;41.51;98935.88;6915171;28;20223;-76
2021/05/19 19:22:51;;;;;;;1.27;1.10;;;;;;;16.64;41.52;98877.81;6915530;28;20270;-75
2021/05/19 19:26:12;;;;;;;2.20;1.20;;;;;;;16.35;43.03;98922.34;6914864;28;20220;-75
2021/05/19 19:29:34;;;;;;;2.37;1.70;;;;;;;15.99;44.47;98941.66;6915893;28;20647;-75
2021/05/19 19:32:55;;;;;;;1.73;1.60;;;;;;;16.59;43.29;98954.78;6915501;28;20655;-75
2021/05/19 19:36:17;;;;;;;1.80;1.60;;;;;;;16.34;43.84;98928.88;6914975;28;20213;-76
2021/05/19 19:39:39;;;;;;;1.90;1.70;;;;;;;16.12;44.45;98909.63;6915090;28;20208;-75
2021/05/19 19:43:03;;;;;;;2.20;1.83;;;;;;;16.22;45.96;99021.38;6915070;28;20729;-76
2021/05/19 19:46:24;;;;;;;4.20;1.80;;;;;;;16.22;45.40;98960.69;6915020;28;20760;-76
2021/05/19 19:49:46;;;;;;;3.27;2.10;;;;;;;16.10;45.88;98955.25;6914935;28;20209;-76
2021/05/19 19:53:07;;;;;;;3.10;2.40;;;;;;;16.04;46.93;99026.09;6914519;28;20238;-75
2021/05/19 19:56:30;;;;;;;6.80;3.80;;;;;;;15.91;46.67;99004.53;6915867;28;20568;-76
2021/05/19 19:59:52;;;;;;;6.40;3.63;;;;;;;15.87;47.34;99025.94;6920569;28;20215;-75
2021/05/19 20:03:20;;;;;;;3.27;2.53;;;;;;;15.95;47.55;99035.63;6919414;28;20204;-76
2021/05/19 20:06:41;;;;;;;3.93;2.30;;;;;;;15.39;48.10;98976.28;6919527;28;20236;-75
2021/05/19 20:10:03;;;;;;;3.57;2.30;;;;;;;15.17;47.74;98958.81;6919366;28;20338;-75